Time;durP1;ratioP1;P1;durP2;ratioP2;P2;SDS_P1;SDS_P2;PMS_P1;PMS_P2;Temp;Humidity;BMP_temperature;BMP_pressure;BME280_temperature;BME280_humidity;BME280_pressure;Samples;Min_cycle;Max_cycle;Signal;HPM_P1;HPM_P2
2022/07/21 00:00:52;;;;;;;1999.90;999.90;;;;;;;20.07;100.00;100008.00;5041818;28;20049;-52
2022/07/21 00:03:37;;;;;;;1999.90;999.90;;;;;;;19.93;100.00;100010.66;5044695;28;20402;-52
2022/07/21 00:06:21;;;;;;;1999.90;999.90;;;;;;;19.76;100.00;100016.97;5046308;28;20495;-52
2022/07/21 00:09:06;;;;;;;1999.90;999.90;;;;;;;19.65;100.00;100019.41;5043214;28;20119;-52
2022/07/21 00:11:51;;;;;;;1999.90;999.90;;;;;;;19.66;100.00;100015.81;5043945;28;20662;-52
2022/07/21 00:14:35;;;;;;;1999.90;999.90;;;;;;;19.64;100.00;100019.50;5042382;28;20071;-52
2022/07/21 00:17:20;;;;;;;1999.90;999.90;;;;;;;19.77;100.00;100025.81;5045446;28;20037;-52
2022/07/21 00:20:06;;;;;;;1999.90;999.90;;;;;;;19.73;100.00;100019.81;5044107;28;20545;-52
2022/07/21 00:22:50;;;;;;;1999.90;999.90;;;;;;;19.79;100.00;100014.16;5045468;28;20496;-52
2022/07/21 00:25:35;;;;;;;1999.90;999.90;;;;;;;19.81;100.00;100020.19;5042593;28;20451;-52
2022/07/21 00:28:20;;;;;;;1999.90;999.90;;;;;;;19.79;100.00;100007.94;5043733;28;20400;-52
2022/07/21 00:31:05;;;;;;;1999.90;999.90;;;;;;;19.75;100.00;100004.63;5043543;28;20057;-51
2022/07/21 00:33:51;;;;;;;1999.90;999.90;;;;;;;19.78;100.00;100003.59;5043975;28;20045;-52
2022/07/21 00:36:35;;;;;;;1999.90;999.90;;;;;;;19.75;100.00;99996.66;5043953;28;20056;-52
2022/07/21 00:39:19;;;;;;;1999.90;999.90;;;;;;;19.59;100.00;100002.00;5043602;28;20045;-52
2022/07/21 00:42:04;;;;;;;1999.90;999.90;;;;;;;19.45;100.00;99999.31;5042808;28;20049;-52
2022/07/21 00:44:49;;;;;;;1999.90;999.90;;;;;;;19.39;100.00;99987.22;5041715;28;20388;-52
2022/07/21 00:47:34;;;;;;;1999.90;999.90;;;;;;;19.42;100.00;99998.63;5043144;28;20500;-52
2022/07/21 00:50:20;;;;;;;1999.90;999.90;;;;;;;19.36;100.00;99992.72;5044223;28;20037;-52
2022/07/21 00:53:05;;;;;;;1999.90;999.90;;;;;;;19.44;100.00;99970.19;5045276;28;20041;-52
2022/07/21 00:55:49;;;;;;;1999.90;999.90;;;;;;;19.42;100.00;99986.19;5045149;28;20041;-52
2022/07/21 00:58:34;;;;;;;1999.90;999.90;;;;;;;19.33;100.00;99981.44;5043657;28;20057;-52
2022/07/21 01:01:18;;;;;;;1999.90;999.90;;;;;;;19.33;100.00;99979.63;5044760;28;20116;-52
2022/07/21 01:04:03;;;;;;;1999.90;999.90;;;;;;;19.20;100.00;99975.13;5047086;28;20052;-52
2022/07/21 01:06:48;;;;;;;1999.90;999.90;;;;;;;19.20;100.00;99975.13;5043816;28;20049;-51
2022/07/21 01:09:34;;;;;;;1999.90;999.90;;;;;;;19.08;100.00;99977.56;5043600;28;20049;-52
2022/07/21 01:12:18;;;;;;;1999.90;999.90;;;;;;;19.05;100.00;99969.75;5041693;28;20037;-51
2022/07/21 01:15:05;;;;;;;1999.90;999.90;;;;;;;18.96;100.00;99975.59;5045232;28;20041;-52
2022/07/21 01:17:50;;;;;;;1999.90;999.90;;;;;;;18.98;100.00;99965.75;5040263;28;20484;-52
2022/07/21 01:20:35;;;;;;;1999.90;999.90;;;;;;;18.82;100.00;99962.28;5041878;28;20040;-52
2022/07/21 01:23:21;;;;;;;1999.90;999.90;;;;;;;18.72;100.00;99961.94;5041569;28;20045;-52
2022/07/21 01:26:05;;;;;;;1999.90;999.90;;;;;;;18.70;100.00;99961.13;5043647;28;20045;-52
2022/07/21 01:28:50;;;;;;;1999.90;999.90;;;;;;;18.56;100.00;99959.25;5042565;28;20036;-51
2022/07/21 01:31:35;;;;;;;1999.90;999.90;;;;;;;18.59;100.00;99950.25;5040393;28;20091;-52
2022/07/21 01:34:19;;;;;;;1999.90;999.90;;;;;;;18.48;100.00;99957.94;5042083;28;20046;-52
2022/07/21 01:37:03;;;;;;;1999.90;999.90;;;;;;;18.44;100.00;99947.50;5041391;28;20079;-52
2022/07/21 01:42:53;;;;;;;1999.90;999.90;;;;;;;18.52;100.00;99956.81;5040480;28;20048;-52
2022/07/21 01:45:38;;;;;;;1999.90;999.90;;;;;;;18.53;100.00;99953.25;5041438;28;20480;-52
2022/07/21 01:48:23;;;;;;;1999.90;999.90;;;;;;;18.47;100.00;99953.59;5041459;28;20033;-52
2022/07/21 01:51:07;;;;;;;1999.90;999.90;;;;;;;18.45;100.00;99953.66;5039643;28;20045;-51
2022/07/21 01:53:52;;;;;;;1999.90;999.90;;;;;;;18.37;100.00;99958.56;5039996;28;20045;-52
2022/07/21 01:56:38;;;;;;;1999.90;999.90;;;;;;;18.39;100.00;99956.66;5038330;28;20120;-52
2022/07/21 01:59:23;;;;;;;1999.90;999.90;;;;;;;18.35;100.00;99957.75;5039624;28;20098;-53
2022/07/21 02:02:07;;;;;;;1999.90;999.90;;;;;;;18.32;100.00;99952.63;5041619;28;20089;-51
2022/07/21 02:04:51;;;;;;;1999.90;999.90;;;;;;;18.25;100.00;99948.59;5041223;28;20041;-52
2022/07/21 02:07:36;;;;;;;1999.90;999.90;;;;;;;18.16;100.00;99949.94;5041276;28;20044;-51
2022/07/21 02:10:20;;;;;;;1999.90;999.90;;;;;;;18.08;100.00;99942.44;5042539;28;20041;-51
2022/07/21 02:13:05;;;;;;;1999.90;999.90;;;;;;;18.04;100.00;99932.94;5040797;28;20048;-52
2022/07/21 02:15:50;;;;;;;1999.90;999.90;;;;;;;18.12;100.00;99943.13;5039714;28;20045;-51
2022/07/21 02:18:35;;;;;;;1999.90;999.90;;;;;;;18.05;100.00;99947.88;5039675;28;20420;-51
2022/07/21 02:21:20;;;;;;;1999.90;999.90;;;;;;;17.93;100.00;99940.59;5037421;28;20056;-51
2022/07/21 02:24:05;;;;;;;1999.90;999.90;;;;;;;17.95;100.00;99941.38;5040628;28;20099;-52
2022/07/21 02:26:50;;;;;;;1999.90;999.90;;;;;;;17.94;100.00;99945.81;5041881;28;20037;-52
2022/07/21 02:29:35;;;;;;;1999.90;999.90;;;;;;;17.83;100.00;99939.38;5040683;28;20423;-51
2022/07/21 02:32:20;;;;;;;1999.90;999.90;;;;;;;17.87;100.00;99951.50;5040807;28;20041;-51
2022/07/21 02:35:05;;;;;;;1999.90;999.90;;;;;;;17.88;100.00;99943.50;5042315;28;20064;-52
2022/07/21 02:37:50;;;;;;;1999.90;999.90;;;;;;;17.84;100.00;99956.97;5040678;28;20061;-51
2022/07/21 02:40:34;;;;;;;1999.90;999.90;;;;;;;17.70;100.00;99963.81;5039824;28;20049;-51
2022/07/21 02:43:19;;;;;;;1999.90;999.90;;;;;;;17.67;100.00;99963.97;5040391;28;20049;-52
2022/07/21 02:46:04;;;;;;;1999.90;999.90;;;;;;;17.65;100.00;99963.22;5041160;28;20049;-51
2022/07/21 02:48:48;;;;;;;1999.90;999.90;;;;;;;17.62;100.00;99965.16;5039555;28;20052;-52
2022/07/21 02:51:32;;;;;;;1999.90;999.90;;;;;;;17.63;100.00;99961.56;5039705;28;20052;-51
2022/07/21 02:54:17;;;;;;;1999.90;999.90;;;;;;;17.55;100.00;99961.97;5038228;28;20557;-52
2022/07/21 02:57:01;;;;;;;1999.90;999.90;;;;;;;17.56;100.00;99957.53;5039110;28;20088;-52
2022/07/21 02:59:46;;;;;;;1999.90;999.90;;;;;;;17.58;100.00;99951.22;5039933;28;20052;-52
2022/07/21 03:02:30;;;;;;;1999.90;999.90;;;;;;;17.53;100.00;99959.41;5041193;28;20056;-51
2022/07/21 03:05:15;;;;;;;1999.90;999.90;;;;;;;17.52;100.00;99962.13;5039225;28;20041;-51
2022/07/21 03:08:00;;;;;;;1999.90;999.90;;;;;;;17.37;100.00;99945.22;5044142;28;20041;-52
2022/07/21 03:10:44;;;;;;;1999.90;999.90;;;;;;;17.46;100.00;99954.50;5042762;28;20052;-52
2022/07/21 03:13:29;;;;;;;1999.90;999.90;;;;;;;17.48;100.00;99955.25;5039145;28;20048;-51
2022/07/21 03:16:13;;;;;;;1999.90;999.90;;;;;;;17.49;100.00;99959.66;5044069;28;20037;-51
2022/07/21 03:18:57;;;;;;;1999.90;999.90;;;;;;;17.45;100.00;99958.94;5043340;28;20049;-52
2022/07/21 03:21:42;;;;;;;1999.90;999.90;;;;;;;17.41;100.00;99965.31;5043690;28;20384;-51
2022/07/21 03:24:26;;;;;;;1999.90;999.90;;;;;;;17.51;100.00;99968.34;5038700;28;20061;-52
2022/07/21 03:27:11;;;;;;;1999.90;999.90;;;;;;;17.54;100.00;99965.53;5044508;28;20056;-51
2022/07/21 03:29:55;;;;;;;1999.90;999.90;;;;;;;17.56;100.00;99965.47;5045683;28;20045;-51
2022/07/21 03:32:40;;;;;;;1999.90;999.90;;;;;;;17.52;100.00;99951.53;5042458;28;20052;-51
2022/07/21 03:35:25;;;;;;;1999.90;999.90;;;;;;;17.51;100.00;99955.94;5041655;28;20503;-52
2022/07/21 03:38:09;;;;;;;1999.90;999.90;;;;;;;17.61;100.00;99945.75;5039747;28;20140;-52
2022/07/21 03:40:54;;;;;;;1999.90;999.90;;;;;;;17.53;100.00;99935.56;5038088;28;20049;-51
2022/07/21 03:43:38;;;;;;;1999.90;999.90;;;;;;;17.64;100.00;99948.25;5040226;28;20061;-52
2022/07/21 03:46:23;;;;;;;1999.90;999.90;;;;;;;17.62;100.00;99955.44;5039000;28;20071;-51
2022/07/21 03:49:07;;;;;;;1999.90;999.90;;;;;;;17.74;100.00;99960.09;5038217;28;20049;-52
2022/07/21 03:51:51;;;;;;;1999.90;999.90;;;;;;;17.72;100.00;99958.44;5039405;28;20049;-51
2022/07/21 03:54:36;;;;;;;1999.90;999.90;;;;;;;17.74;100.00;99962.75;5039996;28;20400;-51
2022/07/21 03:57:20;;;;;;;1999.90;999.90;;;;;;;17.78;100.00;99962.59;5039923;28;20985;-52
2022/07/21 04:00:09;;;;;;;1999.90;999.90;;;;;;;17.86;100.00;99971.00;5038722;28;20052;-52
2022/07/21 04:02:57;;;;;;;1999.90;999.90;;;;;;;17.85;100.00;99977.25;5040690;28;20048;-51
2022/07/21 04:05:42;;;;;;;1999.90;999.90;;;;;;;18.04;100.00;99978.00;5041432;28;20049;-51
2022/07/21 04:08:26;;;;;;;1999.90;999.90;;;;;;;18.10;100.00;99972.38;5039855;28;20596;-51
2022/07/21 04:11:12;;;;;;;1999.90;999.90;;;;;;;18.32;100.00;99965.88;5047509;28;20048;-52
2022/07/21 04:13:56;;;;;;;1999.90;999.90;;;;;;;18.65;100.00;99977.31;5044835;28;20049;-51
2022/07/21 04:16:41;;;;;;;1999.90;999.90;;;;;;;19.00;100.00;99985.09;5044074;28;20344;-51
2022/07/21 04:19:25;;;;;;;1999.90;999.90;;;;;;;19.23;100.00;99974.94;5045275;28;20045;-52
2022/07/21 04:22:10;;;;;;;1999.90;999.90;;;;;;;19.66;100.00;99968.00;5045517;28;20049;-52
2022/07/21 04:24:54;;;;;;;1999.90;999.90;;;;;;;19.78;100.00;99975.22;5044555;28;20072;-52
2022/07/21 04:27:39;;;;;;;1999.90;999.90;;;;;;;20.17;100.00;99968.41;5045158;28;20053;-52
2022/07/21 04:30:24;;;;;;;1999.90;999.90;;;;;;;20.57;100.00;99973.03;5046629;28;20053;-52
2022/07/21 04:33:08;;;;;;;1999.90;999.90;;;;;;;20.72;100.00;99972.06;5041458;28;20045;-52
2022/07/21 04:35:53;;;;;;;1999.90;999.90;;;;;;;20.80;100.00;99967.13;5041430;28;20049;-51
2022/07/21 04:38:37;;;;;;;1999.90;999.90;;;;;;;20.90;100.00;99968.22;5042482;28;20057;-52
2022/07/21 04:41:21;;;;;;;1999.90;999.90;;;;;;;21.17;100.00;99964.69;5042383;28;20052;-53
2022/07/21 04:44:06;;;;;;;1999.90;999.90;;;;;;;21.07;100.00;99971.59;5042641;28;20468;-53
2022/07/21 04:46:50;;;;;;;1999.90;999.90;;;;;;;21.63;100.00;99973.13;5041260;28;20037;-52
2022/07/21 04:49:35;;;;;;;1999.90;999.90;;;;;;;21.66;100.00;99972.91;5039591;28;20472;-52
2022/07/21 04:52:20;;;;;;;1999.90;999.90;;;;;;;21.89;100.00;99982.00;5041221;28;20049;-52
2022/07/21 04:55:05;;;;;;;1999.90;999.90;;;;;;;21.77;100.00;99984.66;5040569;28;20497;-53
2022/07/21 04:57:51;;;;;;;1999.90;999.90;;;;;;;22.06;100.00;99988.81;5039366;28;20266;-52
2022/07/21 05:00:36;;;;;;;1999.90;999.90;;;;;;;21.95;100.00;99988.72;5040975;28;20057;-53
2022/07/21 05:03:21;;;;;;;1999.90;999.90;;;;;;;22.50;96.60;99987.53;5038481;28;20104;-53
2022/07/21 05:06:06;;;;;;;1999.90;999.90;;;;;;;22.61;94.33;99994.75;5039428;28;20041;-53
2022/07/21 05:08:51;;;;;;;1999.90;999.90;;;;;;;23.21;99.18;99996.59;5040387;28;20507;-53
2022/07/21 05:11:35;;;;;;;1999.90;999.90;;;;;;;23.63;92.08;99998.81;5037885;28;20450;-53
2022/07/21 05:14:20;;;;;;;1999.90;999.90;;;;;;;23.53;90.11;99991.50;5036666;28;20057;-53
2022/07/21 05:17:05;;;;;;;1999.90;999.90;;;;;;;23.58;86.91;100000.97;5043207;28;20041;-53
2022/07/21 05:19:50;;;;;;;1999.90;999.90;;;;;;;23.99;89.64;99997.84;5045956;28;20052;-53
2022/07/21 05:22:34;;;;;;;1999.90;999.90;;;;;;;23.86;84.73;99981.88;5045806;28;20535;-53
2022/07/21 05:25:19;;;;;;;1999.90;999.90;;;;;;;24.03;84.44;100007.31;5040423;28;20044;-54
2022/07/21 05:28:06;;;;;;;1999.90;999.90;;;;;;;24.31;81.86;99995.31;5042907;28;20037;-53
2022/07/21 05:30:50;;;;;;;1999.90;999.90;;;;;;;23.96;83.77;100006.94;5043974;28;20042;-54
2022/07/21 05:33:36;;;;;;;1999.90;999.90;;;;;;;24.43;82.79;99999.69;5039529;28;20472;-53
2022/07/21 05:36:20;;;;;;;1999.90;999.90;;;;;;;24.98;77.72;99999.75;5039401;28;20660;-54
2022/07/21 05:39:05;;;;;;;1999.90;999.90;;;;;;;24.70;78.45;99999.31;5041039;28;20045;-54
2022/07/21 05:41:50;;;;;;;1999.90;999.90;;;;;;;25.08;77.99;100003.34;5040929;28;20530;-54
2022/07/21 05:44:34;;;;;;;1999.90;999.90;;;;;;;25.42;76.66;100003.28;5040093;28;20164;-54
2022/07/21 05:47:18;;;;;;;1999.90;999.90;;;;;;;25.42;78.21;99993.41;5039474;28;20041;-54
2022/07/21 05:50:04;;;;;;;1999.90;999.90;;;;;;;25.37;78.31;99998.28;5040517;28;20049;-53
2022/07/21 05:52:48;;;;;;;1999.90;999.90;;;;;;;26.12;75.01;99999.09;5041666;28;20447;-53
2022/07/21 05:55:32;;;;;;;1999.90;999.90;;;;;;;26.11;73.19;99992.88;5041166;28;21170;-54
2022/07/21 05:58:18;;;;;;;1999.90;999.90;;;;;;;26.11;72.95;99992.88;5040561;28;20056;-54
2022/07/21 06:01:09;;;;;;;1999.90;999.90;;;;;;;26.59;70.21;99998.63;5041359;28;20049;-54
2022/07/21 06:03:53;;;;;;;1999.90;999.90;;;;;;;26.48;68.34;99988.84;5040918;28;20048;-53
2022/07/21 06:06:38;;;;;;;1999.90;999.90;;;;;;;26.64;68.15;99989.16;5038898;28;20036;-54
2022/07/21 06:09:22;;;;;;;1999.90;999.90;;;;;;;26.86;67.84;99998.84;5040503;28;20049;-54
2022/07/21 06:12:07;;;;;;;1999.90;999.90;;;;;;;27.11;68.32;99997.47;5038585;28;21433;-55
2022/07/21 06:14:51;;;;;;;1999.90;999.90;;;;;;;26.79;70.34;99993.16;5038887;28;20885;-55
2022/07/21 06:17:44;;;;;;;1999.90;999.90;;;;;;;27.35;64.48;99993.56;5040822;28;20498;-55
2022/07/21 06:20:28;;;;;;;1999.90;999.90;;;;;;;27.36;62.38;99993.38;5040015;28;20052;-54
2022/07/21 06:23:12;;;;;;;1999.90;999.90;;;;;;;27.55;64.93;99989.84;5041229;28;20049;-53
2022/07/21 06:25:57;;;;;;;1999.90;999.90;;;;;;;27.65;63.51;99979.91;5038022;28;20414;-55
2022/07/21 06:28:42;;;;;;;1999.90;999.90;;;;;;;27.87;62.99;99981.47;5039519;28;20550;-56
2022/07/21 06:31:26;;;;;;;1999.90;999.90;;;;;;;27.95;61.80;99980.78;5041613;28;20045;-55
2022/07/21 06:34:10;;;;;;;1999.90;999.90;;;;;;;28.14;60.73;99978.00;5044488;28;20041;-55
2022/07/21 06:36:54;;;;;;;1999.90;999.90;;;;;;;27.81;60.77;99976.66;5042912;28;20278;-54
2022/07/21 06:39:41;;;;;;;1999.90;999.90;;;;;;;28.42;62.15;99965.44;5040268;28;20045;-53
2022/07/21 06:42:25;;;;;;;1999.90;999.90;;;;;;;28.29;61.45;99962.22;5039808;28;20055;-53
2022/07/21 06:45:10;;;;;;;1999.90;999.90;;;;;;;29.05;62.18;99963.78;5040166;28;20041;-54
2022/07/21 06:48:03;;;;;;;1999.90;999.90;;;;;;;29.71;59.31;99962.53;5037763;28;20412;-55
2022/07/21 06:50:48;;;;;;;1999.90;999.90;;;;;;;29.13;57.70;99969.28;5039191;28;20037;-54
2022/07/21 06:53:32;;;;;;;1999.90;999.90;;;;;;;29.48;56.77;99971.09;5036758;28;20060;-53
2022/07/21 06:56:18;;;;;;;1999.90;999.90;;;;;;;28.93;55.75;99970.41;5037270;28;20385;-53
2022/07/21 06:59:02;;;;;;;1999.90;999.90;;;;;;;29.42;55.26;99971.72;5037256;28;20049;-54
2022/07/21 07:01:46;;;;;;;1999.90;999.90;;;;;;;29.99;53.10;99976.72;5036367;28;20053;-54
2022/07/21 07:04:31;;;;;;;1999.90;999.90;;;;;;;29.76;55.12;99968.31;5036676;28;20176;-55
2022/07/21 07:07:16;;;;;;;1999.90;999.90;;;;;;;30.04;53.14;99979.78;5039345;28;20052;-54
2022/07/21 07:10:02;;;;;;;1999.90;999.90;;;;;;;30.11;54.04;99975.44;5038464;28;20049;-53
2022/07/21 07:12:47;;;;;;;1999.90;999.90;;;;;;;30.14;51.08;99974.28;5037935;28;20052;-54
2022/07/21 07:15:31;;;;;;;1999.90;999.90;;;;;;;30.77;51.00;99978.47;5037614;28;20395;-55
2022/07/21 07:18:15;;;;;;;1999.90;999.90;;;;;;;31.29;49.25;99983.63;5038180;28;20492;-54
2022/07/21 07:21:00;;;;;;;1999.90;999.90;;;;;;;31.66;48.11;99983.19;5037314;28;20045;-55
2022/07/21 07:23:44;;;;;;;1999.90;999.90;;;;;;;31.09;48.49;99983.94;5036628;28;20050;-53
2022/07/21 07:26:29;;;;;;;1999.90;999.90;;;;;;;31.12;49.33;99985.47;5035916;28;20041;-54
2022/07/21 07:29:14;;;;;;;1999.90;999.90;;;;;;;31.35;49.23;99985.69;5036135;28;20128;-55
2022/07/21 07:31:59;;;;;;;1999.90;999.90;;;;;;;31.33;48.94;99985.88;5036817;28;20045;-57
2022/07/21 07:34:44;;;;;;;1999.90;999.90;;;;;;;31.99;49.68;99978.56;5041046;28;20071;-54
2022/07/21 07:37:28;;;;;;;1999.90;999.90;;;;;;;32.08;47.25;99974.84;5042504;28;20051;-55
2022/07/21 07:40:18;;;;;;;1999.90;999.90;;;;;;;32.25;48.12;99982.91;5041140;28;20499;-54
2022/07/21 07:43:02;;;;;;;1999.90;999.90;;;;;;;31.64;47.86;99990.59;5041439;28;20391;-54
2022/07/21 07:45:46;;;;;;;1999.90;999.90;;;;;;;32.20;45.96;99986.13;5046442;28;20460;-54
2022/07/21 07:48:31;;;;;;;1999.90;999.90;;;;;;;32.51;46.38;99974.53;5044129;28;20045;-57
2022/07/21 07:51:15;;;;;;;1999.90;999.90;;;;;;;33.52;46.72;99981.75;5042342;28;20045;-56
2022/07/21 07:54:03;;;;;;;1999.90;999.90;;;;;;;33.72;44.43;99980.19;5040555;28;20068;-55
2022/07/21 07:56:48;;;;;;;1999.90;999.90;;;;;;;32.84;42.91;99982.50;5040655;28;20049;-56
2022/07/21 07:59:32;;;;;;;1999.90;999.90;;;;;;;32.94;45.11;99989.38;5045838;28;20048;-55
2022/07/21 08:02:17;;;;;;;1999.90;999.90;;;;;;;32.96;44.93;99981.09;5045178;28;20040;-56
2022/07/21 08:05:03;;;;;;;1999.90;999.90;;;;;;;33.00;45.28;99979.72;5040635;28;20053;-55
2022/07/21 08:07:48;;;;;;;1999.90;999.90;;;;;;;33.93;43.41;99974.06;5041872;28;20453;-55
2022/07/21 08:10:32;;;;;;;1999.90;999.90;;;;;;;33.85;42.63;99967.84;5041221;28;20439;-55
2022/07/21 08:13:18;;;;;;;1999.90;999.90;;;;;;;33.94;43.03;99967.59;5041584;28;20049;-55
2022/07/21 08:16:03;;;;;;;1999.90;999.90;;;;;;;33.95;41.48;99947.53;5042526;28;20041;-55
2022/07/21 08:18:48;;;;;;;1999.90;999.90;;;;;;;33.97;42.13;99960.94;5043076;28;20037;-56
2022/07/21 08:21:33;;;;;;;1999.90;999.90;;;;;;;33.93;43.57;99959.59;5047811;28;20443;-56
2022/07/21 08:24:18;;;;;;;1999.90;999.90;;;;;;;34.46;39.69;99952.22;5045721;28;20037;-55
2022/07/21 08:27:02;;;;;;;1999.90;999.90;;;;;;;34.81;40.88;99952.47;5046438;28;20468;-56
2022/07/21 08:29:47;;;;;;;1999.90;999.90;;;;;;;34.55;39.32;99956.56;5043090;28;20546;-56
2022/07/21 08:32:31;;;;;;;1999.90;999.90;;;;;;;35.20;37.99;99957.50;5045447;28;20041;-55
2022/07/21 08:35:16;;;;;;;1999.90;999.90;;;;;;;35.26;37.03;99954.00;5045104;28;20990;-55
2022/07/21 08:38:06;;;;;;;1999.90;999.90;;;;;;;35.09;36.99;99960.72;5047120;28;20148;-55
2022/07/21 08:40:50;;;;;;;1999.90;999.90;;;;;;;35.05;37.21;99956.72;5045054;28;20056;-56
2022/07/21 08:43:35;;;;;;;1999.90;999.90;;;;;;;35.39;37.15;99945.09;5042833;28;20087;-56
2022/07/21 08:46:22;;;;;;;1999.90;999.90;;;;;;;35.45;37.71;99944.31;5044101;28;20408;-56
2022/07/21 08:49:08;;;;;;;1999.90;999.90;;;;;;;34.72;37.94;99940.84;5046171;28;20480;-56
2022/07/21 08:51:53;;;;;;;1999.90;999.90;;;;;;;35.64;38.34;99936.53;5044938;28;20045;-56
2022/07/21 08:54:38;;;;;;;1999.90;999.90;;;;;;;35.69;37.21;99929.47;5041821;28;20055;-56
2022/07/21 08:57:22;;;;;;;1999.90;999.90;;;;;;;35.40;36.63;99935.06;5043210;28;20053;-55
2022/07/21 09:00:08;;;;;;;1999.90;999.90;;;;;;;36.69;36.33;99922.69;5044877;28;20102;-56
2022/07/21 09:03:11;;;;;;;1999.90;999.90;;;;;;;36.08;37.87;99919.88;5044650;28;20056;-56
2022/07/21 09:06:15;;;;;;;1999.90;999.90;;;;;;;36.94;34.92;99922.91;5042735;28;20049;-56
2022/07/21 09:09:01;;;;;;;1999.90;999.90;;;;;;;35.08;34.73;99929.97;5040874;28;20945;-58
2022/07/21 09:11:45;;;;;;;1999.90;999.90;;;;;;;36.14;36.27;99929.13;5040006;28;20037;-56
2022/07/21 09:14:32;;;;;;;1999.90;999.90;;;;;;;36.29;33.45;99927.09;5039856;28;20044;-56
2022/07/21 09:17:19;;;;;;;1999.90;999.90;;;;;;;36.27;34.33;99930.03;5038692;28;20045;-56
2022/07/21 09:20:04;;;;;;;1999.90;999.90;;;;;;;36.54;33.18;99926.63;5039745;28;20500;-54
2022/07/21 09:23:05;;;;;;;1999.90;999.90;;;;;;;36.45;31.92;99909.53;5041524;28;20403;-55
2022/07/21 09:25:56;;;;;;;1999.90;999.90;;;;;;;36.33;31.93;99922.06;5039189;28;20045;-56
2022/07/21 09:28:41;;;;;;;1999.90;999.90;;;;;;;36.03;33.24;99925.09;5040407;28;20056;-56
2022/07/21 09:31:26;;;;;;;1999.90;999.90;;;;;;;36.59;31.73;99911.28;5037232;28;20064;-56
2022/07/21 09:34:14;;;;;;;1999.90;999.90;;;;;;;36.62;32.21;99908.16;5039524;28;20250;-56
2022/07/21 09:36:59;;;;;;;1999.90;999.90;;;;;;;36.20;33.37;99911.94;5039012;28;20053;-55
2022/07/21 09:39:44;;;;;;;1999.90;999.90;;;;;;;37.12;34.39;99905.97;5039111;28;20508;-56
2022/07/21 09:42:33;;;;;;;1999.90;999.90;;;;;;;36.40;33.95;99904.72;5038383;28;20040;-56
2022/07/21 09:45:18;;;;;;;1999.90;999.90;;;;;;;37.28;33.54;99907.47;5036287;28;20053;-56
2022/07/21 09:48:03;;;;;;;1999.90;999.90;;;;;;;37.33;32.69;99910.38;5038319;28;20412;-56
2022/07/21 09:50:48;;;;;;;1999.90;999.90;;;;;;;37.48;32.52;99902.03;5036958;28;20383;-55
2022/07/21 09:54:00;;;;;;;1999.90;999.90;;;;;;;37.45;30.36;99899.72;5038625;28;20048;-56
2022/07/21 09:56:47;;;;;;;1999.90;999.90;;;;;;;37.15;31.78;99900.09;5036777;28;20033;-56
2022/07/21 09:59:32;;;;;;;1999.90;999.90;;;;;;;37.53;29.97;99899.47;5038276;28;20133;-55
2022/07/21 10:02:30;;;;;;;1999.90;999.90;;;;;;;37.43;31.13;99904.50;5039401;28;20053;-55
2022/07/21 10:05:20;;;;;;;1999.90;999.90;;;;;;;36.87;30.60;99899.41;5038267;28;20514;-55
2022/07/21 10:08:05;;;;;;;1999.90;999.90;;;;;;;37.84;31.07;99897.97;5036628;28;20049;-57
2022/07/21 10:10:49;;;;;;;1999.90;999.90;;;;;;;37.42;29.52;99897.38;5040263;28;20055;-57
2022/07/21 10:13:35;;;;;;;1999.90;999.90;;;;;;;37.74;29.39;99890.22;5040750;28;20061;-56
2022/07/21 10:16:20;;;;;;;1999.90;999.90;;;;;;;37.76;29.88;99885.34;5038384;28;20049;-56
2022/07/21 10:19:28;;;;;;;1999.90;999.90;;;;;;;37.44;30.97;99881.59;5038468;28;20053;-57
2022/07/21 10:22:25;;;;;;;1999.90;999.90;;;;;;;38.02;29.69;99878.16;5039752;28;20045;-55
2022/07/21 10:25:10;;;;;;;1999.90;999.90;;;;;;;37.89;28.47;99868.91;5040023;28;20041;-56
2022/07/21 10:28:10;;;;;;;1999.90;999.90;;;;;;;37.98;28.22;99877.75;5041016;28;20484;-56
2022/07/21 10:30:57;;;;;;;1999.90;999.90;;;;;;;38.43;27.77;99875.06;5039885;28;20042;-57
2022/07/21 10:33:45;;;;;;;1999.90;999.90;;;;;;;37.46;27.58;99868.59;5041779;28;20401;-57
2022/07/21 10:36:35;;;;;;;1999.90;999.90;;;;;;;37.31;27.12;99873.41;5041824;28;20651;-57
2022/07/21 10:39:23;;;;;;;1999.90;999.90;;;;;;;37.89;28.32;99862.63;5042235;28;20405;-58
2022/07/21 10:42:16;;;;;;;1999.90;999.90;;;;;;;37.83;28.57;99864.34;5038758;28;20432;-56
2022/07/21 10:45:01;;;;;;;1999.90;999.90;;;;;;;37.83;27.36;99860.75;5040199;28;20053;-56
2022/07/21 10:47:45;;;;;;;1999.90;999.90;;;;;;;38.71;28.38;99860.16;5038776;28;20678;-56
2022/07/21 10:50:38;;;;;;;1999.90;999.90;;;;;;;38.26;26.43;99852.84;5040473;28;20048;-56
2022/07/21 10:53:22;;;;;;;1999.90;999.90;;;;;;;37.88;27.05;99855.47;5040824;28;20049;-57
2022/07/21 10:56:07;;;;;;;1999.90;999.90;;;;;;;38.46;27.74;99852.75;5039307;28;20037;-55
2022/07/21 10:58:52;;;;;;;1999.90;999.90;;;;;;;37.44;26.60;99857.00;5040696;28;20485;-56
2022/07/21 11:01:39;;;;;;;1999.90;999.90;;;;;;;37.92;28.24;99850.47;5040610;28;20037;-55
2022/07/21 11:04:23;;;;;;;1999.90;999.90;;;;;;;38.16;26.37;99843.44;5041203;28;20044;-55
2022/07/21 11:07:08;;;;;;;1999.90;999.90;;;;;;;37.46;27.44;99849.50;5039920;28;20345;-56
2022/07/21 11:10:19;;;;;;;1999.90;999.90;;;;;;;37.79;26.89;99856.78;5038955;28;20049;-56
2022/07/21 11:13:03;;;;;;;1999.90;999.90;;;;;;;38.92;28.86;99845.31;5041690;28;20055;-56
2022/07/21 11:15:48;;;;;;;1999.90;999.90;;;;;;;39.00;26.52;99850.50;5039863;28;20504;-56
2022/07/21 11:18:33;;;;;;;1999.90;999.90;;;;;;;38.58;25.97;99853.75;5040120;28;20080;-55
2022/07/21 11:21:17;;;;;;;1999.90;999.90;;;;;;;37.80;26.30;99851.09;5042160;28;20144;-56
2022/07/21 11:24:01;;;;;;;1999.90;999.90;;;;;;;38.85;26.59;99855.50;5042131;28;20774;-55
2022/07/21 11:26:54;;;;;;;1999.90;999.90;;;;;;;38.61;26.88;99848.88;5042782;28;20052;-56
2022/07/21 11:29:41;;;;;;;1999.90;999.90;;;;;;;38.70;26.44;99848.38;5042970;28;20041;-55
2022/07/21 11:32:26;;;;;;;1999.90;999.90;;;;;;;37.96;27.06;99848.97;5045749;28;20377;-55
2022/07/21 11:35:12;;;;;;;1999.90;999.90;;;;;;;38.11;26.32;99833.13;5046153;28;20053;-57
2022/07/21 11:38:03;;;;;;;1999.90;999.90;;;;;;;37.91;27.36;99844.16;5046315;28;20053;-56
2022/07/21 11:40:48;;;;;;;;;;;;;;;38.10;27.13;99834.22;5047742;28;20098;-56
2022/07/21 11:43:50;;;;;;;1999.90;999.90;;;;;;;38.08;26.50;99825.38;5046830;28;19925;-56
2022/07/21 11:46:46;;;;;;;1999.90;999.90;;;;;;;38.39;26.78;99832.00;5045326;28;20499;-55
2022/07/21 11:49:31;;;;;;;1999.90;999.90;;;;;;;38.01;26.73;99817.19;5046104;28;20044;-55
2022/07/21 11:52:17;;;;;;;1999.90;999.90;;;;;;;37.73;27.60;99817.47;5043815;28;20049;-56
2022/07/21 11:55:04;;;;;;;1999.90;999.90;;;;;;;37.93;26.26;99812.00;5042821;28;20044;-57
2022/07/21 11:57:49;;;;;;;1999.90;999.90;;;;;;;38.08;26.08;99806.25;5045113;28;20041;-55
2022/07/21 12:00:33;;;;;;;1999.90;999.90;;;;;;;37.41;27.15;99800.13;5046058;28;20072;-56
2022/07/21 12:03:17;;;;;;;1999.90;999.90;;;;;;;37.92;27.73;99806.72;5044736;28;20041;-56
2022/07/21 12:06:02;;;;;;;1999.90;999.90;;;;;;;37.70;27.26;99807.00;5043867;28;20460;-56
2022/07/21 12:08:47;;;;;;;1999.90;999.90;;;;;;;38.19;26.89;99802.84;5045079;28;20044;-56
2022/07/21 12:11:36;;;;;;;1999.90;999.90;;;;;;;38.27;26.71;99791.63;5044085;28;20648;-56
2022/07/21 12:14:38;;;;;;;1999.90;999.90;;;;;;;38.02;25.57;99788.81;5046017;28;20049;-55
2022/07/21 12:17:44;;;;;;;1999.90;999.90;;;;;;;37.66;26.31;99792.91;5044461;28;20114;-57